Gemsa, Egypt
Current Conditions -  °F | °C
As of 7:00 PM on Friday 21 Nov 2014 (Local Time) from HEGN Reporting Station
Clear Clear  
Wind Chill: 22°   Ceiling: Unl
Heat Index: 22°   Visibility: 6mi
Dew Point:   Wind: 8mph
Humidity: 38%   Direction: 330°NNW
Pressure: 29.97"   Gusts: NA
Location:  27.63°N, 33.58°E
Report Text: HEGN 211700Z 33007KT CAVOK 22/07 Q1015
Loading
Personal Weather Stations






























Interactive Weather Map New forecast layout! Learn more

10-Day Weather Forecast

Advertisements
Track Severe Weather on mobile